sensor_id;sensor_type;location;lat;lon;timestamp;P1;durP1;ratioP1;P2;durP2;ratioP2
34896;SDS011;43407;51.828;-2.298;2023-05-01T00:00:02;24.58;;;14.32;;
34896;SDS011;43407;51.828;-2.298;2023-05-01T00:02:28;24.38;;;15.27;;
34896;SDS011;43407;51.828;-2.298;2023-05-01T00:04:54;25.02;;;13.90;;
34896;SDS011;43407;51.828;-2.298;2023-05-01T00:07:20;21.08;;;13.77;;
34896;SDS011;43407;51.828;-2.298;2023-05-01T00:09:46;28.75;;;16.17;;
34896;SDS011;43407;51.828;-2.298;2023-05-01T00:12:11;28.30;;;15.27;;
34896;SDS011;43407;51.828;-2.298;2023-05-01T00:14:37;24.17;;;14.55;;
34896;SDS011;43407;51.828;-2.298;2023-05-01T00:17:02;23.27;;;13.35;;
34896;SDS011;43407;51.828;-2.298;2023-05-01T00:19:28;25.45;;;15.07;;
34896;SDS011;43407;51.828;-2.298;2023-05-01T00:21:53;25.25;;;14.75;;
34896;SDS011;43407;51.828;-2.298;2023-05-01T00:24:19;30.45;;;16.80;;
34896;SDS011;43407;51.828;-2.298;2023-05-01T00:26:44;23.50;;;13.93;;
34896;SDS011;43407;51.828;-2.298;2023-05-01T00:29:10;31.05;;;14.75;;
34896;SDS011;43407;51.828;-2.298;2023-05-01T00:31:36;24.88;;;14.80;;
34896;SDS011;43407;51.828;-2.298;2023-05-01T00:34:01;21.50;;;13.20;;
34896;SDS011;43407;51.828;-2.298;2023-05-01T00:36:29;23.38;;;14.43;;
34896;SDS011;43407;51.828;-2.298;2023-05-01T00:38:55;17.90;;;12.77;;
34896;SDS011;43407;51.828;-2.298;2023-05-01T00:41:21;22.13;;;12.88;;
34896;SDS011;43407;51.828;-2.298;2023-05-01T00:43:46;21.20;;;12.68;;
34896;SDS011;43407;51.828;-2.298;2023-05-01T00:46:12;18.58;;;11.80;;
34896;SDS011;43407;51.828;-2.298;2023-05-01T00:48:37;19.77;;;11.20;;
34896;SDS011;43407;51.828;-2.298;2023-05-01T00:51:03;16.30;;;9.52;;
34896;SDS011;43407;51.828;-2.298;2023-05-01T00:53:30;14.05;;;8.82;;
34896;SDS011;43407;51.828;-2.298;2023-05-01T00:55:57;16.42;;;8.38;;
34896;SDS011;43407;51.828;-2.298;2023-05-01T00:58:22;12.23;;;7.93;;
34896;SDS011;43407;51.828;-2.298;2023-05-01T01:00:48;15.05;;;8.02;;
34896;SDS011;43407;51.828;-2.298;2023-05-01T01:03:14;15.45;;;7.43;;
34896;SDS011;43407;51.828;-2.298;2023-05-01T01:05:45;15.68;;;7.88;;
34896;SDS011;43407;51.828;-2.298;2023-05-01T01:11:29;14.80;;;7.88;;
34896;SDS011;43407;51.828;-2.298;2023-05-01T01:17:08;12.00;;;7.03;;
34896;SDS011;43407;51.828;-2.298;2023-05-01T01:30:51;12.00;;;6.88;;
34896;SDS011;43407;51.828;-2.298;2023-05-01T01:36:31;16.30;;;7.25;;
34896;SDS011;43407;51.828;-2.298;2023-05-01T01:41:50;13.57;;;7.25;;
34896;SDS011;43407;51.828;-2.298;2023-05-01T01:44:32;16.77;;;7.90;;
34896;SDS011;43407;51.828;-2.298;2023-05-01T01:47:03;20.20;;;7.00;;
34896;SDS011;43407;51.828;-2.298;2023-05-01T01:49:31;11.90;;;6.30;;
34896;SDS011;43407;51.828;-2.298;2023-05-01T01:51:57;15.20;;;6.30;;
34896;SDS011;43407;51.828;-2.298;2023-05-01T01:54:28;12.93;;;6.88;;
34896;SDS011;43407;51.828;-2.298;2023-05-01T01:56:58;12.63;;;6.30;;
34896;SDS011;43407;51.828;-2.298;2023-05-01T01:59:26;14.73;;;6.50;;
34896;SDS011;43407;51.828;-2.298;2023-05-01T02:01:56;12.82;;;7.07;;
34896;SDS011;43407;51.828;-2.298;2023-05-01T02:04:22;19.38;;;8.10;;
34896;SDS011;43407;51.828;-2.298;2023-05-01T02:06:48;12.05;;;6.32;;
34896;SDS011;43407;51.828;-2.298;2023-05-01T02:09:14;9.90;;;6.30;;
34896;SDS011;43407;51.828;-2.298;2023-05-01T02:11:41;16.45;;;6.30;;
34896;SDS011;43407;51.828;-2.298;2023-05-01T02:14:06;14.07;;;6.65;;
34896;SDS011;43407;51.828;-2.298;2023-05-01T02:16:33;11.98;;;6.10;;
34896;SDS011;43407;51.828;-2.298;2023-05-01T02:19:00;18.20;;;7.43;;
34896;SDS011;43407;51.828;-2.298;2023-05-01T02:21:27;15.55;;;7.63;;
34896;SDS011;43407;51.828;-2.298;2023-05-01T02:23:55;13.15;;;6.65;;
34896;SDS011;43407;51.828;-2.298;2023-05-01T02:26:21;13.35;;;7.28;;
34896;SDS011;43407;51.828;-2.298;2023-05-01T02:28:48;12.30;;;7.25;;
34896;SDS011;43407;51.828;-2.298;2023-05-01T02:31:14;15.05;;;7.45;;
34896;SDS011;43407;51.828;-2.298;2023-05-01T02:33:40;17.08;;;7.72;;
34896;SDS011;43407;51.828;-2.298;2023-05-01T02:36:05;10.98;;;7.38;;
34896;SDS011;43407;51.828;-2.298;2023-05-01T02:38:31;11.40;;;7.03;;
34896;SDS011;43407;51.828;-2.298;2023-05-01T02:40:56;14.43;;;6.70;;
34896;SDS011;43407;51.828;-2.298;2023-05-01T02:43:22;14.77;;;6.50;;
34896;SDS011;43407;51.828;-2.298;2023-05-01T02:45:50;9.75;;;5.93;;
34896;SDS011;43407;51.828;-2.298;2023-05-01T02:48:17;11.50;;;6.55;;
34896;SDS011;43407;51.828;-2.298;2023-05-01T02:50:51;12.48;;;6.93;;
34896;SDS011;43407;51.828;-2.298;2023-05-01T02:53:17;20.45;;;7.40;;
34896;SDS011;43407;51.828;-2.298;2023-05-01T02:55:44;13.20;;;6.43;;
34896;SDS011;43407;51.828;-2.298;2023-05-01T02:58:14;12.35;;;6.00;;
34896;SDS011;43407;51.828;-2.298;2023-05-01T03:00:40;13.77;;;6.05;;
34896;SDS011;43407;51.828;-2.298;2023-05-01T03:03:06;17.50;;;6.43;;
34896;SDS011;43407;51.828;-2.298;2023-05-01T03:05:31;13.10;;;5.70;;
34896;SDS011;43407;51.828;-2.298;2023-05-01T03:07:57;10.18;;;6.07;;
34896;SDS011;43407;51.828;-2.298;2023-05-01T03:10:22;19.80;;;6.32;;
34896;SDS011;43407;51.828;-2.298;2023-05-01T03:12:48;13.27;;;5.80;;
34896;SDS011;43407;51.828;-2.298;2023-05-01T03:15:13;13.70;;;6.13;;
34896;SDS011;43407;51.828;-2.298;2023-05-01T03:17:39;9.10;;;5.35;;
34896;SDS011;43407;51.828;-2.298;2023-05-01T03:20:05;9.73;;;5.30;;
34896;SDS011;43407;51.828;-2.298;2023-05-01T03:22:33;14.48;;;6.35;;
34896;SDS011;43407;51.828;-2.298;2023-05-01T03:24:59;14.25;;;6.47;;
34896;SDS011;43407;51.828;-2.298;2023-05-01T03:27:25;9.90;;;5.63;;
34896;SDS011;43407;51.828;-2.298;2023-05-01T03:29:50;17.20;;;6.28;;
34896;SDS011;43407;51.828;-2.298;2023-05-01T03:32:16;18.85;;;6.75;;
34896;SDS011;43407;51.828;-2.298;2023-05-01T03:34:42;16.88;;;6.72;;
34896;SDS011;43407;51.828;-2.298;2023-05-01T03:37:08;13.18;;;6.57;;
34896;SDS011;43407;51.828;-2.298;2023-05-01T03:39:34;16.98;;;6.90;;
34896;SDS011;43407;51.828;-2.298;2023-05-01T03:42:00;12.60;;;7.38;;
34896;SDS011;43407;51.828;-2.298;2023-05-01T03:44:26;14.70;;;6.63;;
34896;SDS011;43407;51.828;-2.298;2023-05-01T03:46:51;11.88;;;6.28;;
34896;SDS011;43407;51.828;-2.298;2023-05-01T03:49:17;11.68;;;6.15;;
34896;SDS011;43407;51.828;-2.298;2023-05-01T03:51:42;14.50;;;6.13;;
34896;SDS011;43407;51.828;-2.298;2023-05-01T03:54:08;17.85;;;6.78;;
34896;SDS011;43407;51.828;-2.298;2023-05-01T03:56:33;14.05;;;6.22;;
34896;SDS011;43407;51.828;-2.298;2023-05-01T03:59:00;17.88;;;7.57;;
34896;SDS011;43407;51.828;-2.298;2023-05-01T04:01:26;16.63;;;7.47;;
34896;SDS011;43407;51.828;-2.298;2023-05-01T04:03:51;16.50;;;7.50;;
34896;SDS011;43407;51.828;-2.298;2023-05-01T04:06:18;20.05;;;7.32;;
34896;SDS011;43407;51.828;-2.298;2023-05-01T04:08:43;15.93;;;7.05;;
34896;SDS011;43407;51.828;-2.298;2023-05-01T04:11:09;13.02;;;6.38;;
34896;SDS011;43407;51.828;-2.298;2023-05-01T04:13:35;15.23;;;7.28;;
34896;SDS011;43407;51.828;-2.298;2023-05-01T04:16:00;10.48;;;6.20;;
34896;SDS011;43407;51.828;-2.298;2023-05-01T04:18:26;19.23;;;7.70;;
34896;SDS011;43407;51.828;-2.298;2023-05-01T04:20:52;10.52;;;5.88;;
34896;SDS011;43407;51.828;-2.298;2023-05-01T04:23:17;12.93;;;6.20;;
34896;SDS011;43407;51.828;-2.298;2023-05-01T04:25:44;16.90;;;7.00;;
34896;SDS011;43407;51.828;-2.298;2023-05-01T04:28:11;16.02;;;7.60;;
34896;SDS011;43407;51.828;-2.298;2023-05-01T04:30:37;23.83;;;8.80;;
34896;SDS011;43407;51.828;-2.298;2023-05-01T04:33:02;15.45;;;7.47;;
34896;SDS011;43407;51.828;-2.298;2023-05-01T04:35:35;16.63;;;7.63;;
34896;SDS011;43407;51.828;-2.298;2023-05-01T04:38:04;19.13;;;7.72;;
34896;SDS011;43407;51.828;-2.298;2023-05-01T04:40:29;16.27;;;7.60;;
34896;SDS011;43407;51.828;-2.298;2023-05-01T04:42:55;17.30;;;7.45;;
34896;SDS011;43407;51.828;-2.298;2023-05-01T04:45:21;16.70;;;7.90;;
34896;SDS011;43407;51.828;-2.298;2023-05-01T04:47:46;20.23;;;7.68;;
34896;SDS011;43407;51.828;-2.298;2023-05-01T04:50:12;13.57;;;6.90;;
34896;SDS011;43407;51.828;-2.298;2023-05-01T04:52:38;11.95;;;6.90;;
34896;SDS011;43407;51.828;-2.298;2023-05-01T04:55:04;11.88;;;6.65;;
34896;SDS011;43407;51.828;-2.298;2023-05-01T04:57:30;10.75;;;5.90;;
34896;SDS011;43407;51.828;-2.298;2023-05-01T04:59:55;15.50;;;6.72;;
34896;SDS011;43407;51.828;-2.298;2023-05-01T05:02:21;11.55;;;5.47;;
34896;SDS011;43407;51.828;-2.298;2023-05-01T05:04:46;11.18;;;5.60;;
34896;SDS011;43407;51.828;-2.298;2023-05-01T05:07:12;11.63;;;6.07;;
34896;SDS011;43407;51.828;-2.298;2023-05-01T05:09:37;11.52;;;5.90;;
34896;SDS011;43407;51.828;-2.298;2023-05-01T05:12:03;9.82;;;5.07;;
34896;SDS011;43407;51.828;-2.298;2023-05-01T05:14:29;10.95;;;5.47;;
34896;SDS011;43407;51.828;-2.298;2023-05-01T05:16:55;9.73;;;5.13;;
34896;SDS011;43407;51.828;-2.298;2023-05-01T05:19:20;14.98;;;5.70;;
34896;SDS011;43407;51.828;-2.298;2023-05-01T05:21:46;15.63;;;5.63;;
34896;SDS011;43407;51.828;-2.298;2023-05-01T05:24:12;11.55;;;5.03;;
34896;SDS011;43407;51.828;-2.298;2023-05-01T05:26:38;11.25;;;4.80;;
34896;SDS011;43407;51.828;-2.298;2023-05-01T05:29:03;7.25;;;5.32;;
34896;SDS011;43407;51.828;-2.298;2023-05-01T05:31:29;11.63;;;5.30;;
34896;SDS011;43407;51.828;-2.298;2023-05-01T05:33:54;8.63;;;5.35;;
34896;SDS011;43407;51.828;-2.298;2023-05-01T05:36:20;9.88;;;5.07;;
34896;SDS011;43407;51.828;-2.298;2023-05-01T05:38:45;12.82;;;5.60;;
34896;SDS011;43407;51.828;-2.298;2023-05-01T05:41:11;11.27;;;5.78;;
34896;SDS011;43407;51.828;-2.298;2023-05-01T05:43:36;13.93;;;6.55;;
34896;SDS011;43407;51.828;-2.298;2023-05-01T05:46:02;12.18;;;5.57;;
34896;SDS011;43407;51.828;-2.298;2023-05-01T05:48:28;10.60;;;5.50;;
34896;SDS011;43407;51.828;-2.298;2023-05-01T05:50:53;10.88;;;5.30;;
34896;SDS011;43407;51.828;-2.298;2023-05-01T05:53:19;10.85;;;5.55;;
34896;SDS011;43407;51.828;-2.298;2023-05-01T05:55:47;13.40;;;6.18;;
34896;SDS011;43407;51.828;-2.298;2023-05-01T05:58:14;13.63;;;5.97;;
34896;SDS011;43407;51.828;-2.298;2023-05-01T06:00:47;12.25;;;5.72;;
34896;SDS011;43407;51.828;-2.298;2023-05-01T06:03:13;7.82;;;4.57;;
34896;SDS011;43407;51.828;-2.298;2023-05-01T06:05:39;12.23;;;5.63;;
34896;SDS011;43407;51.828;-2.298;2023-05-01T06:08:04;11.32;;;5.07;;
34896;SDS011;43407;51.828;-2.298;2023-05-01T06:10:30;9.23;;;5.13;;
34896;SDS011;43407;51.828;-2.298;2023-05-01T06:12:56;10.43;;;5.00;;
34896;SDS011;43407;51.828;-2.298;2023-05-01T06:15:21;9.43;;;5.00;;
34896;SDS011;43407;51.828;-2.298;2023-05-01T06:17:48;8.35;;;5.00;;
34896;SDS011;43407;51.828;-2.298;2023-05-01T06:20:14;6.65;;;4.75;;
34896;SDS011;43407;51.828;-2.298;2023-05-01T06:22:40;8.20;;;5.35;;
34896;SDS011;43407;51.828;-2.298;2023-05-01T06:25:06;8.48;;;4.70;;
34896;SDS011;43407;51.828;-2.298;2023-05-01T06:27:32;11.07;;;5.10;;
34896;SDS011;43407;51.828;-2.298;2023-05-01T06:29:57;13.40;;;6.13;;
34896;SDS011;43407;51.828;-2.298;2023-05-01T06:32:23;14.23;;;5.80;;
34896;SDS011;43407;51.828;-2.298;2023-05-01T06:34:48;8.32;;;4.88;;
34896;SDS011;43407;51.828;-2.298;2023-05-01T06:37:14;9.50;;;5.10;;
34896;SDS011;43407;51.828;-2.298;2023-05-01T06:39:39;11.88;;;5.88;;
34896;SDS011;43407;51.828;-2.298;2023-05-01T06:42:05;10.05;;;5.47;;
34896;SDS011;43407;51.828;-2.298;2023-05-01T06:44:31;8.45;;;5.10;;
34896;SDS011;43407;51.828;-2.298;2023-05-01T06:46:57;9.88;;;5.30;;
34896;SDS011;43407;51.828;-2.298;2023-05-01T06:49:25;8.32;;;4.70;;
34896;SDS011;43407;51.828;-2.298;2023-05-01T06:51:51;10.18;;;5.55;;
34896;SDS011;43407;51.828;-2.298;2023-05-01T06:54:17;8.88;;;4.85;;
34896;SDS011;43407;51.828;-2.298;2023-05-01T06:56:43;7.03;;;4.57;;
34896;SDS011;43407;51.828;-2.298;2023-05-01T06:59:08;6.47;;;4.70;;
34896;SDS011;43407;51.828;-2.298;2023-05-01T07:01:33;8.52;;;4.38;;
34896;SDS011;43407;51.828;-2.298;2023-05-01T07:03:59;7.72;;;5.03;;
34896;SDS011;43407;51.828;-2.298;2023-05-01T07:06:24;7.65;;;4.63;;
34896;SDS011;43407;51.828;-2.298;2023-05-01T07:08:51;6.57;;;4.53;;
34896;SDS011;43407;51.828;-2.298;2023-05-01T07:11:17;7.63;;;4.10;;
34896;SDS011;43407;51.828;-2.298;2023-05-01T07:13:43;8.27;;;3.88;;
34896;SDS011;43407;51.828;-2.298;2023-05-01T07:16:09;6.07;;;3.70;;
34896;SDS011;43407;51.828;-2.298;2023-05-01T07:18:35;7.60;;;3.55;;
34896;SDS011;43407;51.828;-2.298;2023-05-01T07:21:01;7.97;;;3.97;;
34896;SDS011;43407;51.828;-2.298;2023-05-01T07:23:27;6.10;;;3.17;;
34896;SDS011;43407;51.828;-2.298;2023-05-01T07:25:53;7.32;;;3.25;;
34896;SDS011;43407;51.828;-2.298;2023-05-01T07:28:18;4.20;;;3.08;;
34896;SDS011;43407;51.828;-2.298;2023-05-01T07:30:45;5.50;;;3.08;;
34896;SDS011;43407;51.828;-2.298;2023-05-01T07:33:11;5.88;;;2.72;;
34896;SDS011;43407;51.828;-2.298;2023-05-01T07:35:37;5.53;;;2.88;;
34896;SDS011;43407;51.828;-2.298;2023-05-01T07:38:02;6.57;;;2.83;;
34896;SDS011;43407;51.828;-2.298;2023-05-01T07:40:28;5.78;;;2.80;;
34896;SDS011;43407;51.828;-2.298;2023-05-01T07:42:54;5.25;;;2.10;;
34896;SDS011;43407;51.828;-2.298;2023-05-01T07:45:19;4.75;;;2.50;;
34896;SDS011;43407;51.828;-2.298;2023-05-01T07:47:45;3.42;;;2.08;;
34896;SDS011;43407;51.828;-2.298;2023-05-01T07:50:11;4.35;;;2.25;;
34896;SDS011;43407;51.828;-2.298;2023-05-01T07:52:37;5.53;;;2.50;;
34896;SDS011;43407;51.828;-2.298;2023-05-01T07:55:03;5.55;;;2.40;;
34896;SDS011;43407;51.828;-2.298;2023-05-01T07:57:29;5.70;;;2.47;;
34896;SDS011;43407;51.828;-2.298;2023-05-01T07:59:57;4.70;;;2.03;;
34896;SDS011;43407;51.828;-2.298;2023-05-01T08:02:23;3.83;;;2.00;;
34896;SDS011;43407;51.828;-2.298;2023-05-01T08:04:48;2.40;;;2.03;;
34896;SDS011;43407;51.828;-2.298;2023-05-01T08:07:14;4.68;;;1.60;;
34896;SDS011;43407;51.828;-2.298;2023-05-01T08:09:39;1.65;;;1.50;;
34896;SDS011;43407;51.828;-2.298;2023-05-01T08:12:05;4.20;;;1.30;;
34896;SDS011;43407;51.828;-2.298;2023-05-01T08:14:31;2.63;;;1.40;;
34896;SDS011;43407;51.828;-2.298;2023-05-01T08:16:56;1.50;;;0.93;;
34896;SDS011;43407;51.828;-2.298;2023-05-01T08:19:22;0.90;;;0.90;;
34896;SDS011;43407;51.828;-2.298;2023-05-01T08:21:48;1.88;;;1.00;;
34896;SDS011;43407;51.828;-2.298;2023-05-01T08:24:13;1.13;;;1.02;;
34896;SDS011;43407;51.828;-2.298;2023-05-01T08:26:39;1.15;;;0.95;;
34896;SDS011;43407;51.828;-2.298;2023-05-01T08:29:04;1.77;;;1.00;;
34896;SDS011;43407;51.828;-2.298;2023-05-01T08:31:30;2.00;;;1.00;;
34896;SDS011;43407;51.828;-2.298;2023-05-01T08:33:55;1.05;;;0.80;;
34896;SDS011;43407;51.828;-2.298;2023-05-01T08:36:21;1.42;;;0.90;;
34896;SDS011;43407;51.828;-2.298;2023-05-01T08:38:47;2.30;;;0.80;;
34896;SDS011;43407;51.828;-2.298;2023-05-01T08:41:16;3.40;;;0.95;;
34896;SDS011;43407;51.828;-2.298;2023-05-01T08:43:45;2.13;;;0.90;;
34896;SDS011;43407;51.828;-2.298;2023-05-01T08:46:10;0.85;;;0.80;;
34896;SDS011;43407;51.828;-2.298;2023-05-01T08:48:38;2.15;;;0.73;;
34896;SDS011;43407;51.828;-2.298;2023-05-01T08:51:07;0.88;;;0.88;;
34896;SDS011;43407;51.828;-2.298;2023-05-01T08:53:34;0.70;;;0.70;;
34896;SDS011;43407;51.828;-2.298;2023-05-01T08:56:02;0.65;;;0.65;;
34896;SDS011;43407;51.828;-2.298;2023-05-01T08:58:31;1.73;;;0.80;;
34896;SDS011;43407;51.828;-2.298;2023-05-01T09:00:58;1.23;;;0.68;;
34896;SDS011;43407;51.828;-2.298;2023-05-01T09:03:25;1.20;;;0.80;;
34896;SDS011;43407;51.828;-2.298;2023-05-01T09:05:52;1.40;;;1.02;;
34896;SDS011;43407;51.828;-2.298;2023-05-01T09:08:18;0.95;;;0.80;;
34896;SDS011;43407;51.828;-2.298;2023-05-01T09:10:44;1.65;;;0.85;;
34896;SDS011;43407;51.828;-2.298;2023-05-01T09:13:12;3.30;;;0.82;;
34896;SDS011;43407;51.828;-2.298;2023-05-01T09:15:38;2.70;;;0.80;;
34896;SDS011;43407;51.828;-2.298;2023-05-01T09:18:03;1.85;;;0.90;;
34896;SDS011;43407;51.828;-2.298;2023-05-01T09:20:29;1.05;;;0.80;;
34896;SDS011;43407;51.828;-2.298;2023-05-01T09:22:55;0.93;;;0.70;;
34896;SDS011;43407;51.828;-2.298;2023-05-01T09:25:21;1.38;;;0.70;;
34896;SDS011;43407;51.828;-2.298;2023-05-01T09:27:46;0.68;;;0.68;;
34896;SDS011;43407;51.828;-2.298;2023-05-01T09:33:11;2.03;;;0.80;;
34896;SDS011;43407;51.828;-2.298;2023-05-01T09:38:32;1.05;;;0.90;;
34896;SDS011;43407;51.828;-2.298;2023-05-01T09:41:02;0.93;;;0.60;;
34896;SDS011;43407;51.828;-2.298;2023-05-01T09:43:28;0.95;;;0.73;;
34896;SDS011;43407;51.828;-2.298;2023-05-01T09:46:02;0.80;;;0.77;;
34896;SDS011;43407;51.828;-2.298;2023-05-01T09:48:33;2.03;;;0.90;;
34896;SDS011;43407;51.828;-2.298;2023-05-01T09:50:59;1.05;;;0.88;;
34896;SDS011;43407;51.828;-2.298;2023-05-01T09:53:38;0.98;;;0.60;;
34896;SDS011;43407;51.828;-2.298;2023-05-01T09:56:04;1.17;;;0.80;;
34896;SDS011;43407;51.828;-2.298;2023-05-01T09:58:31;0.95;;;0.70;;
34896;SDS011;43407;51.828;-2.298;2023-05-01T10:00:56;1.95;;;1.00;;
34896;SDS011;43407;51.828;-2.298;2023-05-01T10:03:22;1.75;;;0.82;;
34896;SDS011;43407;51.828;-2.298;2023-05-01T10:05:48;0.60;;;0.60;;
34896;SDS011;43407;51.828;-2.298;2023-05-01T10:08:13;2.72;;;0.90;;
34896;SDS011;43407;51.828;-2.298;2023-05-01T10:10:39;1.15;;;0.90;;
34896;SDS011;43407;51.828;-2.298;2023-05-01T10:13:15;1.00;;;0.77;;
34896;SDS011;43407;51.828;-2.298;2023-05-01T10:15:41;0.77;;;0.60;;
34896;SDS011;43407;51.828;-2.298;2023-05-01T10:18:08;1.58;;;0.80;;
34896;SDS011;43407;51.828;-2.298;2023-05-01T10:20:36;1.00;;;0.80;;
34896;SDS011;43407;51.828;-2.298;2023-05-01T10:23:09;1.23;;;0.70;;
34896;SDS011;43407;51.828;-2.298;2023-05-01T10:25:35;1.42;;;0.80;;
34896;SDS011;43407;51.828;-2.298;2023-05-01T10:28:04;1.48;;;0.63;;
34896;SDS011;43407;51.828;-2.298;2023-05-01T10:30:30;0.93;;;0.50;;
34896;SDS011;43407;51.828;-2.298;2023-05-01T10:32:57;1.17;;;0.80;;
34896;SDS011;43407;51.828;-2.298;2023-05-01T10:35:24;1.17;;;0.77;;
34896;SDS011;43407;51.828;-2.298;2023-05-01T10:40:48;0.63;;;0.63;;
34896;SDS011;43407;51.828;-2.298;2023-05-01T10:43:14;0.75;;;0.60;;
34896;SDS011;43407;51.828;-2.298;2023-05-01T10:45:44;0.55;;;0.55;;
34896;SDS011;43407;51.828;-2.298;2023-05-01T10:48:10;0.55;;;0.50;;
34896;SDS011;43407;51.828;-2.298;2023-05-01T10:53:37;1.02;;;0.70;;
34896;SDS011;43407;51.828;-2.298;2023-05-01T10:56:03;1.20;;;0.75;;
34896;SDS011;43407;51.828;-2.298;2023-05-01T11:06:29;0.90;;;0.68;;
34896;SDS011;43407;51.828;-2.298;2023-05-01T11:08:55;0.50;;;0.50;;
34896;SDS011;43407;51.828;-2.298;2023-05-01T11:14:06;1.30;;;0.60;;
34896;SDS011;43407;51.828;-2.298;2023-05-01T11:19:04;1.63;;;0.70;;
34896;SDS011;43407;51.828;-2.298;2023-05-01T11:21:38;0.75;;;0.50;;
34896;SDS011;43407;51.828;-2.298;2023-05-01T11:24:06;0.65;;;0.50;;
34896;SDS011;43407;51.828;-2.298;2023-05-01T11:26:32;0.90;;;0.47;;
34896;SDS011;43407;51.828;-2.298;2023-05-01T11:29:02;0.55;;;0.55;;
34896;SDS011;43407;51.828;-2.298;2023-05-01T11:31:28;1.70;;;0.75;;
34896;SDS011;43407;51.828;-2.298;2023-05-01T11:33:55;0.85;;;0.57;;
34896;SDS011;43407;51.828;-2.298;2023-05-01T11:36:21;0.88;;;0.60;;
34896;SDS011;43407;51.828;-2.298;2023-05-01T11:41:21;0.57;;;0.50;;
34896;SDS011;43407;51.828;-2.298;2023-05-01T11:43:53;0.63;;;0.55;;
34896;SDS011;43407;51.828;-2.298;2023-05-01T11:46:26;0.50;;;0.40;;
34896;SDS011;43407;51.828;-2.298;2023-05-01T11:48:53;0.60;;;0.60;;
34896;SDS011;43407;51.828;-2.298;2023-05-01T11:51:19;1.17;;;0.60;;
34896;SDS011;43407;51.828;-2.298;2023-05-01T11:56:46;0.60;;;0.60;;
34896;SDS011;43407;51.828;-2.298;2023-05-01T11:59:12;0.60;;;0.60;;
34896;SDS011;43407;51.828;-2.298;2023-05-01T12:01:42;0.60;;;0.60;;
34896;SDS011;43407;51.828;-2.298;2023-05-01T12:04:09;0.70;;;0.60;;
34896;SDS011;43407;51.828;-2.298;2023-05-01T12:09:05;2.75;;;0.75;;
34896;SDS011;43407;51.828;-2.298;2023-05-01T12:11:31;0.65;;;0.65;;
34896;SDS011;43407;51.828;-2.298;2023-05-01T12:13:57;0.60;;;0.60;;
34896;SDS011;43407;51.828;-2.298;2023-05-01T12:16:23;4.60;;;0.60;;
34896;SDS011;43407;51.828;-2.298;2023-05-01T12:18:49;0.68;;;0.68;;
34896;SDS011;43407;51.828;-2.298;2023-05-01T12:21:15;1.00;;;0.60;;
34896;SDS011;43407;51.828;-2.298;2023-05-01T12:23:44;0.60;;;0.60;;
34896;SDS011;43407;51.828;-2.298;2023-05-01T12:28:54;0.60;;;0.43;;
34896;SDS011;43407;51.828;-2.298;2023-05-01T12:31:24;0.45;;;0.45;;
34896;SDS011;43407;51.828;-2.298;2023-05-01T12:33:54;0.60;;;0.57;;
34896;SDS011;43407;51.828;-2.298;2023-05-01T12:36:29;0.47;;;0.47;;
34896;SDS011;43407;51.828;-2.298;2023-05-01T12:38:57;1.10;;;0.80;;
34896;SDS011;43407;51.828;-2.298;2023-05-01T12:41:31;0.80;;;0.80;;
34896;SDS011;43407;51.828;-2.298;2023-05-01T12:44:26;1.23;;;0.70;;
34896;SDS011;43407;51.828;-2.298;2023-05-01T12:46:58;0.90;;;0.90;;
34896;SDS011;43407;51.828;-2.298;2023-05-01T12:49:25;0.88;;;0.88;;
34896;SDS011;43407;51.828;-2.298;2023-05-01T12:51:52;0.73;;;0.73;;
34896;SDS011;43407;51.828;-2.298;2023-05-01T12:54:19;0.75;;;0.70;;
34896;SDS011;43407;51.828;-2.298;2023-05-01T12:56:46;1.27;;;0.70;;
34896;SDS011;43407;51.828;-2.298;2023-05-01T12:59:26;0.80;;;0.60;;
34896;SDS011;43407;51.828;-2.298;2023-05-01T13:02:02;0.50;;;0.50;;
34896;SDS011;43407;51.828;-2.298;2023-05-01T13:04:29;0.77;;;0.77;;
34896;SDS011;43407;51.828;-2.298;2023-05-01T13:06:55;0.90;;;0.50;;
34896;SDS011;43407;51.828;-2.298;2023-05-01T13:09:22;0.40;;;0.40;;
34896;SDS011;43407;51.828;-2.298;2023-05-01T13:12:01;0.60;;;0.52;;
34896;SDS011;43407;51.828;-2.298;2023-05-01T13:14:36;0.68;;;0.57;;
34896;SDS011;43407;51.828;-2.298;2023-05-01T13:17:03;1.13;;;0.43;;
34896;SDS011;43407;51.828;-2.298;2023-05-01T13:19:31;0.98;;;0.47;;
34896;SDS011;43407;51.828;-2.298;2023-05-01T13:21:57;0.40;;;0.40;;
34896;SDS011;43407;51.828;-2.298;2023-05-01T13:24:39;0.50;;;0.50;;
34896;SDS011;43407;51.828;-2.298;2023-05-01T13:27:09;0.40;;;0.40;;
34896;SDS011;43407;51.828;-2.298;2023-05-01T13:29:36;0.43;;;0.43;;
34896;SDS011;43407;51.828;-2.298;2023-05-01T13:32:03;0.57;;;0.50;;
34896;SDS011;43407;51.828;-2.298;2023-05-01T13:34:31;0.63;;;0.40;;
34896;SDS011;43407;51.828;-2.298;2023-05-01T13:36:57;0.40;;;0.40;;
34896;SDS011;43407;51.828;-2.298;2023-05-01T13:39:23;0.70;;;0.38;;
34896;SDS011;43407;51.828;-2.298;2023-05-01T13:41:50;0.32;;;0.32;;
34896;SDS011;43407;51.828;-2.298;2023-05-01T13:44:16;0.52;;;0.32;;
34896;SDS011;43407;51.828;-2.298;2023-05-01T13:46:42;1.67;;;0.40;;
34896;SDS011;43407;51.828;-2.298;2023-05-01T13:49:08;0.80;;;0.50;;
34896;SDS011;43407;51.828;-2.298;2023-05-01T13:51:34;0.47;;;0.30;;
34896;SDS011;43407;51.828;-2.298;2023-05-01T13:54:04;0.50;;;0.40;;
34896;SDS011;43407;51.828;-2.298;2023-05-01T13:56:33;0.52;;;0.40;;
34896;SDS011;43407;51.828;-2.298;2023-05-01T13:59:03;1.73;;;0.60;;
34896;SDS011;43407;51.828;-2.298;2023-05-01T14:01:38;3.90;;;0.60;;
34896;SDS011;43407;51.828;-2.298;2023-05-01T14:04:19;0.65;;;0.35;;
34896;SDS011;43407;51.828;-2.298;2023-05-01T14:06:45;1.48;;;0.47;;
34896;SDS011;43407;51.828;-2.298;2023-05-01T14:09:13;0.50;;;0.40;;
34896;SDS011;43407;51.828;-2.298;2023-05-01T14:11:45;0.55;;;0.40;;
34896;SDS011;43407;51.828;-2.298;2023-05-01T14:14:15;0.50;;;0.32;;
34896;SDS011;43407;51.828;-2.298;2023-05-01T14:16:45;0.40;;;0.30;;
34896;SDS011;43407;51.828;-2.298;2023-05-01T14:19:13;0.43;;;0.43;;
34896;SDS011;43407;51.828;-2.298;2023-05-01T14:21:40;0.40;;;0.40;;
34896;SDS011;43407;51.828;-2.298;2023-05-01T14:24:07;0.85;;;0.50;;
34896;SDS011;43407;51.828;-2.298;2023-05-01T14:26:33;0.73;;;0.60;;
34896;SDS011;43407;51.828;-2.298;2023-05-01T14:28:58;0.38;;;0.38;;
34896;SDS011;43407;51.828;-2.298;2023-05-01T14:31:25;0.75;;;0.50;;
34896;SDS011;43407;51.828;-2.298;2023-05-01T14:33:58;0.45;;;0.40;;
34896;SDS011;43407;51.828;-2.298;2023-05-01T14:36:30;0.80;;;0.32;;
34896;SDS011;43407;51.828;-2.298;2023-05-01T14:39:00;0.60;;;0.35;;
34896;SDS011;43407;51.828;-2.298;2023-05-01T14:41:26;0.50;;;0.40;;
34896;SDS011;43407;51.828;-2.298;2023-05-01T14:43:53;0.40;;;0.40;;
34896;SDS011;43407;51.828;-2.298;2023-05-01T14:46:31;0.40;;;0.40;;
34896;SDS011;43407;51.828;-2.298;2023-05-01T14:48:59;0.40;;;0.40;;
34896;SDS011;43407;51.828;-2.298;2023-05-01T14:51:25;0.45;;;0.45;;
34896;SDS011;43407;51.828;-2.298;2023-05-01T14:53:52;0.68;;;0.45;;
34896;SDS011;43407;51.828;-2.298;2023-05-01T14:56:18;0.43;;;0.43;;
34896;SDS011;43407;51.828;-2.298;2023-05-01T14:58:44;0.75;;;0.40;;
34896;SDS011;43407;51.828;-2.298;2023-05-01T15:01:12;0.57;;;0.50;;
34896;SDS011;43407;51.828;-2.298;2023-05-01T15:03:38;0.40;;;0.40;;
34896;SDS011;43407;51.828;-2.298;2023-05-01T15:06:07;0.80;;;0.60;;
34896;SDS011;43407;51.828;-2.298;2023-05-01T15:08:33;0.70;;;0.50;;
34896;SDS011;43407;51.828;-2.298;2023-05-01T15:10:59;3.85;;;0.60;;
34896;SDS011;43407;51.828;-2.298;2023-05-01T15:13:24;0.63;;;0.50;;
34896;SDS011;43407;51.828;-2.298;2023-05-01T15:15:50;0.75;;;0.50;;
34896;SDS011;43407;51.828;-2.298;2023-05-01T15:18:16;0.40;;;0.40;;
34896;SDS011;43407;51.828;-2.298;2023-05-01T15:20:42;0.40;;;0.40;;
34896;SDS011;43407;51.828;-2.298;2023-05-01T15:23:08;0.73;;;0.60;;
34896;SDS011;43407;51.828;-2.298;2023-05-01T15:25:34;0.47;;;0.47;;